sensor_id;sensor_type;location;lat;lon;timestamp;P1;durP1;ratioP1;P2;durP2;ratioP2
63217;SDS011;49314;48.278;16.378;2023-05-10T00:01:20;6.88;;;6.47;;
63217;SDS011;49314;48.278;16.378;2023-05-10T00:03:45;6.53;;;6.18;;
63217;SDS011;49314;48.278;16.378;2023-05-10T00:06:11;8.05;;;7.55;;
63217;SDS011;49314;48.278;16.378;2023-05-10T00:08:37;10.25;;;9.48;;
63217;SDS011;49314;48.278;16.378;2023-05-10T00:11:02;8.65;;;8.02;;
63217;SDS011;49314;48.278;16.378;2023-05-10T00:13:27;8.80;;;8.15;;
63217;SDS011;49314;48.278;16.378;2023-05-10T00:15:52;7.85;;;7.45;;
63217;SDS011;49314;48.278;16.378;2023-05-10T00:18:18;7.07;;;6.65;;
63217;SDS011;49314;48.278;16.378;2023-05-10T00:20:43;7.15;;;6.72;;
63217;SDS011;49314;48.278;16.378;2023-05-10T00:23:10;8.77;;;8.27;;
63217;SDS011;49314;48.278;16.378;2023-05-10T00:25:36;6.20;;;5.90;;
63217;SDS011;49314;48.278;16.378;2023-05-10T00:28:01;7.18;;;6.80;;
63217;SDS011;49314;48.278;16.378;2023-05-10T00:30:26;8.60;;;7.95;;
63217;SDS011;49314;48.278;16.378;2023-05-10T00:32:52;9.70;;;9.20;;
63217;SDS011;49314;48.278;16.378;2023-05-10T00:35:17;7.30;;;6.80;;
63217;SDS011;49314;48.278;16.378;2023-05-10T00:37:42;9.38;;;8.88;;
63217;SDS011;49314;48.278;16.378;2023-05-10T00:40:07;9.43;;;8.73;;
63217;SDS011;49314;48.278;16.378;2023-05-10T00:42:33;9.77;;;9.10;;
63217;SDS011;49314;48.278;16.378;2023-05-10T00:44:58;6.18;;;5.78;;
63217;SDS011;49314;48.278;16.378;2023-05-10T00:47:23;7.72;;;7.22;;
63217;SDS011;49314;48.278;16.378;2023-05-10T00:49:49;8.80;;;8.30;;
63217;SDS011;49314;48.278;16.378;2023-05-10T00:52:14;7.22;;;6.82;;
63217;SDS011;49314;48.278;16.378;2023-05-10T00:54:40;7.25;;;6.78;;
63217;SDS011;49314;48.278;16.378;2023-05-10T00:57:05;9.38;;;8.45;;
63217;SDS011;49314;48.278;16.378;2023-05-10T00:59:30;9.20;;;8.77;;
63217;SDS011;49314;48.278;16.378;2023-05-10T01:01:56;8.45;;;8.05;;
63217;SDS011;49314;48.278;16.378;2023-05-10T01:04:22;7.68;;;7.38;;
63217;SDS011;49314;48.278;16.378;2023-05-10T01:06:50;10.88;;;10.23;;
63217;SDS011;49314;48.278;16.378;2023-05-10T01:09:16;11.82;;;11.00;;
63217;SDS011;49314;48.278;16.378;2023-05-10T01:11:41;7.43;;;6.97;;
63217;SDS011;49314;48.278;16.378;2023-05-10T01:14:06;12.35;;;11.65;;
63217;SDS011;49314;48.278;16.378;2023-05-10T01:16:33;10.10;;;9.50;;
63217;SDS011;49314;48.278;16.378;2023-05-10T01:19:00;9.18;;;8.57;;
63217;SDS011;49314;48.278;16.378;2023-05-10T01:29:18;8.13;;;7.30;;
63217;SDS011;49314;48.278;16.378;2023-05-10T01:34:21;7.70;;;7.03;;
63217;SDS011;49314;48.278;16.378;2023-05-10T01:36:53;10.80;;;10.00;;
63217;SDS011;49314;48.278;16.378;2023-05-10T01:39:24;13.32;;;12.60;;
63217;SDS011;49314;48.278;16.378;2023-05-10T01:44:17;9.48;;;8.75;;
63217;SDS011;49314;48.278;16.378;2023-05-10T01:46:43;10.38;;;9.75;;
63217;SDS011;49314;48.278;16.378;2023-05-10T01:49:17;8.77;;;8.18;;
63217;SDS011;49314;48.278;16.378;2023-05-10T01:51:47;10.00;;;9.40;;
63217;SDS011;49314;48.278;16.378;2023-05-10T01:54:13;10.35;;;9.80;;
63217;SDS011;49314;48.278;16.378;2023-05-10T01:56:40;11.95;;;11.35;;
63217;SDS011;49314;48.278;16.378;2023-05-10T01:59:08;11.15;;;10.50;;
63217;SDS011;49314;48.278;16.378;2023-05-10T02:01:36;10.82;;;10.07;;
63217;SDS011;49314;48.278;16.378;2023-05-10T02:04:01;13.57;;;12.93;;
63217;SDS011;49314;48.278;16.378;2023-05-10T02:06:27;12.30;;;11.70;;
63217;SDS011;49314;48.278;16.378;2023-05-10T02:08:53;11.27;;;10.48;;
63217;SDS011;49314;48.278;16.378;2023-05-10T02:11:18;9.25;;;8.50;;
63217;SDS011;49314;48.278;16.378;2023-05-10T02:13:47;9.80;;;9.18;;
63217;SDS011;49314;48.278;16.378;2023-05-10T02:16:12;10.27;;;9.77;;
63217;SDS011;49314;48.278;16.378;2023-05-10T02:18:38;8.20;;;7.78;;
63217;SDS011;49314;48.278;16.378;2023-05-10T02:21:06;8.95;;;8.35;;
63217;SDS011;49314;48.278;16.378;2023-05-10T02:23:31;10.45;;;9.73;;
63217;SDS011;49314;48.278;16.378;2023-05-10T02:25:56;10.35;;;9.85;;
63217;SDS011;49314;48.278;16.378;2023-05-10T02:28:23;8.98;;;8.52;;
63217;SDS011;49314;48.278;16.378;2023-05-10T02:30:49;9.07;;;8.30;;
63217;SDS011;49314;48.278;16.378;2023-05-10T02:33:15;12.98;;;12.18;;
63217;SDS011;49314;48.278;16.378;2023-05-10T02:35:41;8.68;;;7.97;;
63217;SDS011;49314;48.278;16.378;2023-05-10T02:38:07;10.20;;;9.48;;
63217;SDS011;49314;48.278;16.378;2023-05-10T02:40:32;11.00;;;10.35;;
63217;SDS011;49314;48.278;16.378;2023-05-10T02:42:58;10.88;;;10.20;;
63217;SDS011;49314;48.278;16.378;2023-05-10T02:45:25;11.85;;;11.15;;
63217;SDS011;49314;48.278;16.378;2023-05-10T02:47:53;11.43;;;10.82;;
63217;SDS011;49314;48.278;16.378;2023-05-10T02:50:18;9.93;;;9.35;;
63217;SDS011;49314;48.278;16.378;2023-05-10T02:52:47;12.38;;;11.73;;
63217;SDS011;49314;48.278;16.378;2023-05-10T02:55:14;12.57;;;11.93;;
63217;SDS011;49314;48.278;16.378;2023-05-10T02:57:45;12.35;;;11.65;;
63217;SDS011;49314;48.278;16.378;2023-05-10T03:00:12;10.20;;;9.63;;
63217;SDS011;49314;48.278;16.378;2023-05-10T03:02:37;11.82;;;11.05;;
63217;SDS011;49314;48.278;16.378;2023-05-10T03:05:03;11.93;;;11.15;;
63217;SDS011;49314;48.278;16.378;2023-05-10T03:07:29;13.35;;;12.60;;
63217;SDS011;49314;48.278;16.378;2023-05-10T03:09:54;12.95;;;12.23;;
63217;SDS011;49314;48.278;16.378;2023-05-10T03:15:05;15.40;;;14.68;;
63217;SDS011;49314;48.278;16.378;2023-05-10T03:20:12;16.40;;;15.43;;
63217;SDS011;49314;48.278;16.378;2023-05-10T03:22:44;12.05;;;11.45;;
63217;SDS011;49314;48.278;16.378;2023-05-10T03:25:10;15.15;;;14.23;;
63217;SDS011;49314;48.278;16.378;2023-05-10T03:27:36;11.18;;;10.48;;
63217;SDS011;49314;48.278;16.378;2023-05-10T03:30:04;13.00;;;12.25;;
63217;SDS011;49314;48.278;16.378;2023-05-10T03:32:30;11.48;;;10.77;;
63217;SDS011;49314;48.278;16.378;2023-05-10T03:34:57;11.73;;;10.98;;
63217;SDS011;49314;48.278;16.378;2023-05-10T03:37:22;13.75;;;12.93;;
63217;SDS011;49314;48.278;16.378;2023-05-10T03:39:47;12.45;;;11.75;;
63217;SDS011;49314;48.278;16.378;2023-05-10T03:42:13;12.68;;;11.95;;
63217;SDS011;49314;48.278;16.378;2023-05-10T03:44:39;12.05;;;11.25;;
63217;SDS011;49314;48.278;16.378;2023-05-10T03:47:04;11.68;;;10.88;;
63217;SDS011;49314;48.278;16.378;2023-05-10T03:49:29;14.70;;;13.80;;
63217;SDS011;49314;48.278;16.378;2023-05-10T03:51:54;13.13;;;12.35;;
63217;SDS011;49314;48.278;16.378;2023-05-10T03:54:20;9.90;;;9.20;;
63217;SDS011;49314;48.278;16.378;2023-05-10T03:56:45;10.45;;;9.75;;
63217;SDS011;49314;48.278;16.378;2023-05-10T03:59:12;11.93;;;11.25;;
63217;SDS011;49314;48.278;16.378;2023-05-10T04:01:38;12.88;;;11.70;;
63217;SDS011;49314;48.278;16.378;2023-05-10T04:04:03;15.77;;;14.88;;
63217;SDS011;49314;48.278;16.378;2023-05-10T04:06:28;13.85;;;12.90;;
63217;SDS011;49314;48.278;16.378;2023-05-10T04:08:53;11.05;;;10.45;;
63217;SDS011;49314;48.278;16.378;2023-05-10T04:11:20;10.93;;;10.30;;
63217;SDS011;49314;48.278;16.378;2023-05-10T04:13:46;12.63;;;11.82;;
63217;SDS011;49314;48.278;16.378;2023-05-10T04:16:12;9.93;;;9.18;;
63217;SDS011;49314;48.278;16.378;2023-05-10T04:18:37;11.73;;;10.90;;
63217;SDS011;49314;48.278;16.378;2023-05-10T04:21:02;12.00;;;11.10;;
63217;SDS011;49314;48.278;16.378;2023-05-10T04:23:28;13.38;;;12.57;;
63217;SDS011;49314;48.278;16.378;2023-05-10T04:25:58;10.75;;;9.98;;
63217;SDS011;49314;48.278;16.378;2023-05-10T04:28:23;13.48;;;12.70;;
63217;SDS011;49314;48.278;16.378;2023-05-10T04:30:49;11.77;;;11.00;;
63217;SDS011;49314;48.278;16.378;2023-05-10T04:33:14;10.45;;;9.75;;
63217;SDS011;49314;48.278;16.378;2023-05-10T04:35:40;11.55;;;10.85;;
63217;SDS011;49314;48.278;16.378;2023-05-10T04:38:05;13.18;;;12.13;;
63217;SDS011;49314;48.278;16.378;2023-05-10T04:40:31;11.68;;;10.82;;
63217;SDS011;49314;48.278;16.378;2023-05-10T04:42:56;10.73;;;10.02;;
63217;SDS011;49314;48.278;16.378;2023-05-10T04:45:21;11.88;;;11.15;;
63217;SDS011;49314;48.278;16.378;2023-05-10T04:47:47;10.15;;;9.43;;
63217;SDS011;49314;48.278;16.378;2023-05-10T04:50:12;9.27;;;8.68;;
63217;SDS011;49314;48.278;16.378;2023-05-10T04:52:37;10.53;;;9.83;;
63217;SDS011;49314;48.278;16.378;2023-05-10T04:55:02;9.70;;;8.90;;
63217;SDS011;49314;48.278;16.378;2023-05-10T04:57:28;11.70;;;10.77;;
63217;SDS011;49314;48.278;16.378;2023-05-10T04:59:53;9.63;;;8.93;;
63217;SDS011;49314;48.278;16.378;2023-05-10T05:02:18;9.27;;;8.60;;
63217;SDS011;49314;48.278;16.378;2023-05-10T05:04:43;8.52;;;7.93;;
63217;SDS011;49314;48.278;16.378;2023-05-10T05:07:09;11.30;;;10.30;;
63217;SDS011;49314;48.278;16.378;2023-05-10T05:09:34;9.13;;;8.50;;
63217;SDS011;49314;48.278;16.378;2023-05-10T05:11:59;10.07;;;9.35;;
63217;SDS011;49314;48.278;16.378;2023-05-10T05:14:25;9.70;;;8.88;;
63217;SDS011;49314;48.278;16.378;2023-05-10T05:16:50;9.88;;;9.07;;
63217;SDS011;49314;48.278;16.378;2023-05-10T05:19:16;9.50;;;8.60;;
63217;SDS011;49314;48.278;16.378;2023-05-10T05:21:41;9.18;;;8.57;;
63217;SDS011;49314;48.278;16.378;2023-05-10T05:24:06;9.60;;;8.77;;
63217;SDS011;49314;48.278;16.378;2023-05-10T05:26:32;9.32;;;8.23;;
63217;SDS011;49314;48.278;16.378;2023-05-10T05:28:57;9.73;;;7.17;;
63217;SDS011;49314;48.278;16.378;2023-05-10T05:31:22;9.38;;;8.52;;
63217;SDS011;49314;48.278;16.378;2023-05-10T05:33:47;8.45;;;7.85;;
63217;SDS011;49314;48.278;16.378;2023-05-10T05:36:13;7.53;;;6.97;;
63217;SDS011;49314;48.278;16.378;2023-05-10T05:38:38;10.93;;;8.60;;
63217;SDS011;49314;48.278;16.378;2023-05-10T05:41:03;8.97;;;6.57;;
63217;SDS011;49314;48.278;16.378;2023-05-10T05:43:28;7.23;;;6.53;;
63217;SDS011;49314;48.278;16.378;2023-05-10T05:45:54;8.13;;;7.35;;
63217;SDS011;49314;48.278;16.378;2023-05-10T05:48:19;8.27;;;7.50;;
63217;SDS011;49314;48.278;16.378;2023-05-10T05:50:45;7.25;;;6.22;;
63217;SDS011;49314;48.278;16.378;2023-05-10T05:53:10;5.82;;;5.38;;
63217;SDS011;49314;48.278;16.378;2023-05-10T05:55:36;7.68;;;7.07;;
63217;SDS011;49314;48.278;16.378;2023-05-10T05:58:01;10.02;;;6.13;;
63217;SDS011;49314;48.278;16.378;2023-05-10T06:00:26;6.60;;;6.10;;
63217;SDS011;49314;48.278;16.378;2023-05-10T06:02:51;9.60;;;6.30;;
63217;SDS011;49314;48.278;16.378;2023-05-10T06:05:17;6.70;;;6.20;;
63217;SDS011;49314;48.278;16.378;2023-05-10T06:07:42;7.90;;;7.30;;
63217;SDS011;49314;48.278;16.378;2023-05-10T06:10:08;7.47;;;6.70;;
63217;SDS011;49314;48.278;16.378;2023-05-10T06:12:33;7.03;;;6.43;;
63217;SDS011;49314;48.278;16.378;2023-05-10T06:14:58;7.68;;;6.57;;
63217;SDS011;49314;48.278;16.378;2023-05-10T06:17:23;5.23;;;4.73;;
63217;SDS011;49314;48.278;16.378;2023-05-10T06:19:49;7.63;;;6.63;;
63217;SDS011;49314;48.278;16.378;2023-05-10T06:22:14;6.97;;;6.07;;
63217;SDS011;49314;48.278;16.378;2023-05-10T06:24:40;7.05;;;6.03;;
63217;SDS011;49314;48.278;16.378;2023-05-10T06:27:05;6.87;;;6.27;;
63217;SDS011;49314;48.278;16.378;2023-05-10T06:29:31;7.15;;;5.88;;
63217;SDS011;49314;48.278;16.378;2023-05-10T06:31:56;7.53;;;5.73;;
63217;SDS011;49314;48.278;16.378;2023-05-10T06:34:21;5.90;;;5.43;;
63217;SDS011;49314;48.278;16.378;2023-05-10T06:36:46;7.03;;;5.50;;
63217;SDS011;49314;48.278;16.378;2023-05-10T06:39:11;6.47;;;5.83;;
63217;SDS011;49314;48.278;16.378;2023-05-10T06:41:37;7.38;;;5.47;;
63217;SDS011;49314;48.278;16.378;2023-05-10T06:44:02;6.53;;;5.85;;
63217;SDS011;49314;48.278;16.378;2023-05-10T06:46:28;6.50;;;5.90;;
63217;SDS011;49314;48.278;16.378;2023-05-10T06:48:53;7.30;;;5.77;;
63217;SDS011;49314;48.278;16.378;2023-05-10T06:51:19;6.30;;;5.30;;
63217;SDS011;49314;48.278;16.378;2023-05-10T06:53:46;9.02;;;5.22;;
63217;SDS011;49314;48.278;16.378;2023-05-10T06:56:11;5.78;;;5.25;;
63217;SDS011;49314;48.278;16.378;2023-05-10T06:58:36;6.70;;;5.40;;
63217;SDS011;49314;48.278;16.378;2023-05-10T07:01:02;5.57;;;5.07;;
63217;SDS011;49314;48.278;16.378;2023-05-10T07:03:28;7.53;;;5.28;;
63217;SDS011;49314;48.278;16.378;2023-05-10T07:05:53;5.97;;;4.97;;
63217;SDS011;49314;48.278;16.378;2023-05-10T07:08:18;6.18;;;5.00;;
63217;SDS011;49314;48.278;16.378;2023-05-10T07:10:43;5.80;;;5.30;;
63217;SDS011;49314;48.278;16.378;2023-05-10T07:13:09;5.83;;;4.77;;
63217;SDS011;49314;48.278;16.378;2023-05-10T07:15:35;6.18;;;5.57;;
63217;SDS011;49314;48.278;16.378;2023-05-10T07:18:00;6.85;;;4.78;;
63217;SDS011;49314;48.278;16.378;2023-05-10T07:20:26;5.97;;;4.75;;
63217;SDS011;49314;48.278;16.378;2023-05-10T07:22:51;5.28;;;4.78;;
63217;SDS011;49314;48.278;16.378;2023-05-10T07:25:16;5.50;;;5.00;;
63217;SDS011;49314;48.278;16.378;2023-05-10T07:27:41;5.23;;;4.73;;
63217;SDS011;49314;48.278;16.378;2023-05-10T07:30:07;8.13;;;5.45;;
63217;SDS011;49314;48.278;16.378;2023-05-10T07:32:32;7.60;;;6.03;;
63217;SDS011;49314;48.278;16.378;2023-05-10T07:34:58;6.68;;;6.00;;
63217;SDS011;49314;48.278;16.378;2023-05-10T07:37:23;7.00;;;6.30;;
63217;SDS011;49314;48.278;16.378;2023-05-10T07:39:48;6.77;;;5.43;;
63217;SDS011;49314;48.278;16.378;2023-05-10T07:42:15;9.50;;;5.70;;
63217;SDS011;49314;48.278;16.378;2023-05-10T07:44:41;6.87;;;5.93;;
63217;SDS011;49314;48.278;16.378;2023-05-10T07:47:06;8.63;;;5.95;;
63217;SDS011;49314;48.278;16.378;2023-05-10T07:49:32;6.60;;;5.37;;
63217;SDS011;49314;48.278;16.378;2023-05-10T07:51:57;5.73;;;5.30;;
63217;SDS011;49314;48.278;16.378;2023-05-10T07:54:22;6.17;;;5.50;;
63217;SDS011;49314;48.278;16.378;2023-05-10T07:56:47;7.93;;;5.73;;
63217;SDS011;49314;48.278;16.378;2023-05-10T07:59:14;9.25;;;5.78;;
63217;SDS011;49314;48.278;16.378;2023-05-10T08:01:40;6.85;;;6.10;;
63217;SDS011;49314;48.278;16.378;2023-05-10T08:04:06;8.10;;;6.40;;
63217;SDS011;49314;48.278;16.378;2023-05-10T08:06:31;7.17;;;5.77;;
63217;SDS011;49314;48.278;16.378;2023-05-10T08:08:56;6.63;;;5.20;;
63217;SDS011;49314;48.278;16.378;2023-05-10T08:11:21;6.93;;;5.10;;
63217;SDS011;49314;48.278;16.378;2023-05-10T08:13:47;8.80;;;6.55;;
63217;SDS011;49314;48.278;16.378;2023-05-10T08:16:13;5.85;;;5.32;;
63217;SDS011;49314;48.278;16.378;2023-05-10T08:18:38;7.03;;;5.55;;
63217;SDS011;49314;48.278;16.378;2023-05-10T08:21:04;6.00;;;5.50;;
63217;SDS011;49314;48.278;16.378;2023-05-10T08:23:29;5.32;;;4.63;;
63217;SDS011;49314;48.278;16.378;2023-05-10T08:25:58;6.22;;;5.35;;
63217;SDS011;49314;48.278;16.378;2023-05-10T08:28:23;4.95;;;4.50;;
63217;SDS011;49314;48.278;16.378;2023-05-10T08:30:49;6.23;;;4.87;;
63217;SDS011;49314;48.278;16.378;2023-05-10T08:33:14;7.40;;;4.70;;
63217;SDS011;49314;48.278;16.378;2023-05-10T08:35:40;5.90;;;4.63;;
63217;SDS011;49314;48.278;16.378;2023-05-10T08:38:06;4.85;;;4.45;;
63217;SDS011;49314;48.278;16.378;2023-05-10T08:40:31;4.67;;;4.17;;
63217;SDS011;49314;48.278;16.378;2023-05-10T08:43:06;5.57;;;3.42;;
63217;SDS011;49314;48.278;16.378;2023-05-10T08:45:32;4.10;;;3.80;;
63217;SDS011;49314;48.278;16.378;2023-05-10T08:47:59;4.05;;;3.63;;
63217;SDS011;49314;48.278;16.378;2023-05-10T08:50:24;5.80;;;3.92;;
63217;SDS011;49314;48.278;16.378;2023-05-10T08:52:50;4.28;;;3.90;;
63217;SDS011;49314;48.278;16.378;2023-05-10T08:55:17;8.15;;;5.00;;
63217;SDS011;49314;48.278;16.378;2023-05-10T08:57:43;7.93;;;4.88;;
63217;SDS011;49314;48.278;16.378;2023-05-10T09:00:09;5.20;;;4.18;;
63217;SDS011;49314;48.278;16.378;2023-05-10T09:02:35;5.50;;;3.95;;
63217;SDS011;49314;48.278;16.378;2023-05-10T09:05:01;5.75;;;3.10;;
63217;SDS011;49314;48.278;16.378;2023-05-10T09:07:27;6.00;;;3.58;;
63217;SDS011;49314;48.278;16.378;2023-05-10T09:09:53;5.27;;;3.67;;
63217;SDS011;49314;48.278;16.378;2023-05-10T09:12:18;7.78;;;3.70;;
63217;SDS011;49314;48.278;16.378;2023-05-10T09:14:44;5.88;;;3.63;;
63217;SDS011;49314;48.278;16.378;2023-05-10T09:17:10;4.93;;;2.60;;
63217;SDS011;49314;48.278;16.378;2023-05-10T09:19:35;4.00;;;2.60;;
63217;SDS011;49314;48.278;16.378;2023-05-10T09:22:01;3.40;;;3.10;;
63217;SDS011;49314;48.278;16.378;2023-05-10T09:24:28;4.18;;;2.53;;
63217;SDS011;49314;48.278;16.378;2023-05-10T09:26:54;3.47;;;2.20;;
63217;SDS011;49314;48.278;16.378;2023-05-10T09:29:21;4.50;;;2.08;;
63217;SDS011;49314;48.278;16.378;2023-05-10T09:31:48;3.85;;;2.30;;
63217;SDS011;49314;48.278;16.378;2023-05-10T09:34:16;3.20;;;2.63;;
63217;SDS011;49314;48.278;16.378;2023-05-10T09:36:52;2.20;;;1.98;;
63217;SDS011;49314;48.278;16.378;2023-05-10T09:39:18;5.05;;;2.22;;
63217;SDS011;49314;48.278;16.378;2023-05-10T09:41:43;2.17;;;1.90;;
63217;SDS011;49314;48.278;16.378;2023-05-10T09:44:08;3.30;;;2.08;;
63217;SDS011;49314;48.278;16.378;2023-05-10T09:46:34;4.00;;;2.42;;
63217;SDS011;49314;48.278;16.378;2023-05-10T09:49:00;2.42;;;2.05;;
63217;SDS011;49314;48.278;16.378;2023-05-10T09:51:26;3.63;;;1.97;;
63217;SDS011;49314;48.278;16.378;2023-05-10T09:54:10;3.45;;;1.65;;
63217;SDS011;49314;48.278;16.378;2023-05-10T09:56:36;2.53;;;2.20;;
63217;SDS011;49314;48.278;16.378;2023-05-10T09:59:03;2.95;;;1.90;;
63217;SDS011;49314;48.278;16.378;2023-05-10T10:01:29;5.05;;;2.40;;
63217;SDS011;49314;48.278;16.378;2023-05-10T10:03:55;4.00;;;2.15;;
63217;SDS011;49314;48.278;16.378;2023-05-10T10:06:22;2.60;;;2.40;;
63217;SDS011;49314;48.278;16.378;2023-05-10T10:08:48;3.70;;;2.08;;
63217;SDS011;49314;48.278;16.378;2023-05-10T10:11:13;2.55;;;1.70;;
63217;SDS011;49314;48.278;16.378;2023-05-10T10:13:38;2.10;;;2.00;;
63217;SDS011;49314;48.278;16.378;2023-05-10T10:16:04;2.30;;;2.08;;
63217;SDS011;49314;48.278;16.378;2023-05-10T10:18:30;4.10;;;1.83;;
63217;SDS011;49314;48.278;16.378;2023-05-10T10:20:55;2.45;;;1.60;;
63217;SDS011;49314;48.278;16.378;2023-05-10T10:23:21;1.88;;;1.77;;
63217;SDS011;49314;48.278;16.378;2023-05-10T10:25:46;2.80;;;1.90;;
63217;SDS011;49314;48.278;16.378;2023-05-10T10:28:24;2.20;;;2.00;;
63217;SDS011;49314;48.278;16.378;2023-05-10T10:30:51;2.70;;;1.80;;
63217;SDS011;49314;48.278;16.378;2023-05-10T10:36:04;2.30;;;1.48;;
63217;SDS011;49314;48.278;16.378;2023-05-10T10:39:07;1.65;;;1.40;;
63217;SDS011;49314;48.278;16.378;2023-05-10T10:41:28;1.60;;;1.50;;
63217;SDS011;49314;48.278;16.378;2023-05-10T10:46:58;2.22;;;1.67;;
63217;SDS011;49314;48.278;16.378;2023-05-10T10:49:22;2.35;;;1.73;;
63217;SDS011;49314;48.278;16.378;2023-05-10T10:54:32;3.58;;;1.45;;
63217;SDS011;49314;48.278;16.378;2023-05-10T10:57:13;1.52;;;1.42;;
63217;SDS011;49314;48.278;16.378;2023-05-10T10:59:44;3.08;;;1.15;;
63217;SDS011;49314;48.278;16.378;2023-05-10T11:02:10;2.70;;;2.17;;
63217;SDS011;49314;48.278;16.378;2023-05-10T11:04:42;5.03;;;1.65;;
63217;SDS011;49314;48.278;16.378;2023-05-10T11:07:17;3.05;;;1.90;;
63217;SDS011;49314;48.278;16.378;2023-05-10T11:09:43;3.53;;;1.42;;
63217;SDS011;49314;48.278;16.378;2023-05-10T11:12:09;3.45;;;1.90;;
63217;SDS011;49314;48.278;16.378;2023-05-10T11:14:34;3.00;;;2.03;;
63217;SDS011;49314;48.278;16.378;2023-05-10T11:17:00;2.07;;;1.40;;
63217;SDS011;49314;48.278;16.378;2023-05-10T11:19:27;4.00;;;1.60;;
63217;SDS011;49314;48.278;16.378;2023-05-10T11:24:27;3.47;;;1.45;;
63217;SDS011;49314;48.278;16.378;2023-05-10T11:26:52;3.72;;;2.08;;
63217;SDS011;49314;48.278;16.378;2023-05-10T11:29:18;2.88;;;1.92;;
63217;SDS011;49314;48.278;16.378;2023-05-10T11:31:44;1.60;;;1.38;;
63217;SDS011;49314;48.278;16.378;2023-05-10T11:34:10;3.55;;;1.98;;
63217;SDS011;49314;48.278;16.378;2023-05-10T11:36:36;1.38;;;1.27;;
63217;SDS011;49314;48.278;16.378;2023-05-10T11:39:02;1.52;;;1.40;;
63217;SDS011;49314;48.278;16.378;2023-05-10T11:41:28;5.18;;;1.83;;
63217;SDS011;49314;48.278;16.378;2023-05-10T11:43:53;5.78;;;1.73;;
63217;SDS011;49314;48.278;16.378;2023-05-10T11:46:20;3.28;;;1.65;;
63217;SDS011;49314;48.278;16.378;2023-05-10T11:48:45;3.63;;;1.13;;
63217;SDS011;49314;48.278;16.378;2023-05-10T11:51:11;2.30;;;1.58;;
63217;SDS011;49314;48.278;16.378;2023-05-10T11:53:37;2.10;;;1.50;;
63217;SDS011;49314;48.278;16.378;2023-05-10T11:56:06;3.17;;;1.50;;
63217;SDS011;49314;48.278;16.378;2023-05-10T11:58:32;2.47;;;1.73;;
63217;SDS011;49314;48.278;16.378;2023-05-10T12:00:58;1.90;;;1.80;;
63217;SDS011;49314;48.278;16.378;2023-05-10T12:03:24;1.50;;;1.40;;
63217;SDS011;49314;48.278;16.378;2023-05-10T12:05:49;4.78;;;1.60;;
63217;SDS011;49314;48.278;16.378;2023-05-10T12:08:15;4.55;;;2.47;;
63217;SDS011;49314;48.278;16.378;2023-05-10T12:10:44;2.80;;;1.15;;
63217;SDS011;49314;48.278;16.378;2023-05-10T12:13:13;1.80;;;1.70;;
63217;SDS011;49314;48.278;16.378;2023-05-10T12:15:42;2.58;;;1.88;;
63217;SDS011;49314;48.278;16.378;2023-05-10T12:18:11;1.83;;;1.70;;
63217;SDS011;49314;48.278;16.378;2023-05-10T12:20:36;1.98;;;1.70;;
63217;SDS011;49314;48.278;16.378;2023-05-10T12:23:01;3.42;;;1.48;;
63217;SDS011;49314;48.278;16.378;2023-05-10T12:25:31;2.35;;;1.73;;
63217;SDS011;49314;48.278;16.378;2023-05-10T12:27:58;3.13;;;1.50;;
63217;SDS011;49314;48.278;16.378;2023-05-10T12:30:26;3.75;;;2.17;;
63217;SDS011;49314;48.278;16.378;2023-05-10T12:32:51;1.50;;;1.35;;
63217;SDS011;49314;48.278;16.378;2023-05-10T12:35:17;2.60;;;1.60;;
63217;SDS011;49314;48.278;16.378;2023-05-10T12:37:46;3.90;;;1.60;;
63217;SDS011;49314;48.278;16.378;2023-05-10T12:40:12;2.80;;;1.70;;
63217;SDS011;49314;48.278;16.378;2023-05-10T12:42:38;2.17;;;1.40;;
63217;SDS011;49314;48.278;16.378;2023-05-10T12:45:06;3.33;;;1.88;;
63217;SDS011;49314;48.278;16.378;2023-05-10T12:47:32;3.72;;;2.33;;
63217;SDS011;49314;48.278;16.378;2023-05-10T12:49:58;3.60;;;1.85;;
63217;SDS011;49314;48.278;16.378;2023-05-10T12:52:24;2.50;;;1.70;;
63217;SDS011;49314;48.278;16.378;2023-05-10T12:54:51;4.47;;;1.90;;
63217;SDS011;49314;48.278;16.378;2023-05-10T12:57:16;2.92;;;1.90;;
63217;SDS011;49314;48.278;16.378;2023-05-10T12:59:41;3.90;;;1.87;;
63217;SDS011;49314;48.278;16.378;2023-05-10T13:02:06;2.00;;;1.80;;
63217;SDS011;49314;48.278;16.378;2023-05-10T13:04:32;2.28;;;2.08;;
63217;SDS011;49314;48.278;16.378;2023-05-10T13:06:57;3.67;;;1.47;;
63217;SDS011;49314;48.278;16.378;2023-05-10T13:09:26;3.22;;;1.80;;
63217;SDS011;49314;48.278;16.378;2023-05-10T13:11:52;3.60;;;1.88;;
63217;SDS011;49314;48.278;16.378;2023-05-10T13:14:19;4.68;;;1.95;;
63217;SDS011;49314;48.278;16.378;2023-05-10T13:16:45;2.20;;;2.00;;
63217;SDS011;49314;48.278;16.378;2023-05-10T13:19:10;3.33;;;1.95;;
63217;SDS011;49314;48.278;16.378;2023-05-10T13:21:36;3.90;;;2.55;;
63217;SDS011;49314;48.278;16.378;2023-05-10T13:24:01;2.35;;;2.13;;
63217;SDS011;49314;48.278;16.378;2023-05-10T13:26:26;4.53;;;2.40;;
63217;SDS011;49314;48.278;16.378;2023-05-10T13:28:52;3.15;;;2.45;;
63217;SDS011;49314;48.278;16.378;2023-05-10T13:31:17;3.47;;;2.20;;
63217;SDS011;49314;48.278;16.378;2023-05-10T13:33:42;4.10;;;2.80;;
63217;SDS011;49314;48.278;16.378;2023-05-10T13:36:08;5.07;;;2.73;;
63217;SDS011;49314;48.278;16.378;2023-05-10T13:38:33;5.47;;;2.67;;
63217;SDS011;49314;48.278;16.378;2023-05-10T13:40:58;2.20;;;1.97;;
63217;SDS011;49314;48.278;16.378;2023-05-10T13:43:23;4.73;;;2.37;;
63217;SDS011;49314;48.278;16.378;2023-05-10T13:45:48;7.80;;;3.08;;
63217;SDS011;49314;48.278;16.378;2023-05-10T13:48:14;2.00;;;1.90;;
63217;SDS011;49314;48.278;16.378;2023-05-10T13:50:39;2.30;;;2.20;;
63217;SDS011;49314;48.278;16.378;2023-05-10T13:53:05;2.15;;;1.67;;
63217;SDS011;49314;48.278;16.378;2023-05-10T13:55:30;2.50;;;1.90;;
63217;SDS011;49314;48.278;16.378;2023-05-10T13:57:55;2.60;;;1.90;;
63217;SDS011;49314;48.278;16.378;2023-05-10T14:00:21;5.23;;;2.37;;
63217;SDS011;49314;48.278;16.378;2023-05-10T14:02:46;2.77;;;1.63;;
63217;SDS011;49314;48.278;16.378;2023-05-10T14:05:11;2.00;;;1.80;;
63217;SDS011;49314;48.278;16.378;2023-05-10T14:07:36;3.50;;;1.90;;
63217;SDS011;49314;48.278;16.378;2023-05-10T14:10:01;2.17;;;1.47;;
63217;SDS011;49314;48.278;16.378;2023-05-10T14:12:27;3.38;;;2.00;;
63217;SDS011;49314;48.278;16.378;2023-05-10T14:14:52;3.63;;;1.30;;
63217;SDS011;49314;48.278;16.378;2023-05-10T14:17:18;1.92;;;1.80;;
63217;SDS011;49314;48.278;16.378;2023-05-10T14:19:44;1.65;;;1.55;;
63217;SDS011;49314;48.278;16.378;2023-05-10T14:22:09;3.37;;;2.47;;
63217;SDS011;49314;48.278;16.378;2023-05-10T14:24:34;2.75;;;2.33;;
63217;SDS011;49314;48.278;16.378;2023-05-10T14:27:00;5.50;;;2.23;;
63217;SDS011;49314;48.278;16.378;2023-05-10T14:29:25;3.88;;;2.45;;
63217;SDS011;49314;48.278;16.378;2023-05-10T14:31:50;2.35;;;2.15;;
63217;SDS011;49314;48.278;16.378;2023-05-10T14:34:15;2.40;;;2.00;;
63217;SDS011;49314;48.278;16.378;2023-05-10T14:36:41;4.67;;;2.20;;
63217;SDS011;49314;48.278;16.378;2023-05-10T14:39:06;4.33;;;2.50;;
63217;SDS011;49314;48.278;16.378;2023-05-10T14:41:31;3.58;;;2.55;;
63217;SDS011;49314;48.278;16.378;2023-05-10T14:43:57;3.35;;;1.70;;
63217;SDS011;49314;48.278;16.378;2023-05-10T14:46:22;2.58;;;2.38;;
63217;SDS011;49314;48.278;16.378;2023-05-10T14:48:47;5.00;;;2.13;;
63217;SDS011;49314;48.278;16.378;2023-05-10T14:51:12;3.50;;;1.77;;
63217;SDS011;49314;48.278;16.378;2023-05-10T14:53:38;2.75;;;1.52;;